AMK weather

Animas Air Park
Durango, Colorado, United States

Public forecast

Using degrees Fahrenheit for public forecast. Weather courtesy of forecast.io.

Closest aviation weather report (METAR) to Animas Air Park

Closest report is Durango La Plata County Airport, 6.3 nm (11.7 km) ESE. Retrieved 2019/12/13 23:53 UTC (13 minutes ago):

KDRO 132353Z AUTO 25006KT 10SM OVC090 04/M06 A3007 RMK AO2 SLP191 T00441056 10083 20044 56001

Closest aviation forecast (TAF) to Animas Air Park

Closest forecast is Durango La Plata County Airport, 6.3 nm (11.7 km) ESE. Retrieved 2019-12-14 00:36 UTC (0 seconds ago):

TAF KDRO 132335Z 1400/1424 27010G18KT P6SM SCT070 OVC100 FM140300 VRB05KT P6SM SCT070 OVC100 FM140800 VRB04KT P6SM SCT050 OVC070 FM141500 VRB03KT P6SM VCSH SCT025 BKN050 FM141700 VRB04KT P6SM VCSH SCT020 BKN045